createdAt,value
2023-03-17T00:01:55.938Z,91.41
2023-03-17T00:04:32.671Z,90.58
2023-03-17T00:07:00.017Z,90.73
2023-03-17T00:09:27.345Z,90.94
2023-03-17T00:11:54.642Z,90.58
2023-03-17T00:14:21.867Z,90.61
2023-03-17T00:16:50.477Z,90.87
2023-03-17T00:19:36.619Z,91.45
2023-03-17T00:22:06.772Z,90.52
2023-03-17T00:24:33.766Z,90.28
2023-03-17T00:27:01.239Z,90.37
2023-03-17T00:29:28.187Z,90.80
2023-03-17T00:31:57.410Z,90.37
2023-03-17T00:34:24.500Z,90.91
2023-03-17T00:36:52.349Z,90.42
2023-03-17T00:39:19.960Z,91.03
2023-03-17T00:41:49.851Z,90.88
2023-03-17T00:44:17.543Z,91.36
2023-03-17T00:46:44.791Z,91.51
2023-03-17T00:49:22.132Z,91.71
2023-03-17T00:51:50.177Z,91.31
2023-03-17T00:54:19.447Z,90.92
2023-03-17T00:56:48.188Z,91.34
2023-03-17T00:59:20.611Z,90.95
2023-03-17T01:01:48.268Z,91.13
2023-03-17T01:04:15.804Z,91.36
2023-03-17T01:06:43.348Z,91.36
2023-03-17T01:09:17.111Z,91.08
2023-03-17T01:11:44.424Z,90.86
2023-03-17T01:14:16.007Z,90.31
2023-03-17T01:16:43.273Z,89.84
2023-03-17T01:19:13.398Z,90.18
2023-03-17T01:21:41.643Z,90.20
2023-03-17T01:24:09.622Z,90.59
2023-03-17T01:26:36.953Z,90.69
2023-03-17T01:29:04.934Z,91.07
2023-03-17T01:31:32.075Z,90.67
2023-03-17T01:33:59.085Z,90.43
2023-03-17T01:36:26.468Z,89.87
2023-03-17T01:38:53.816Z,89.28
2023-03-17T01:41:21.221Z,89.60
2023-03-17T01:43:48.488Z,89.62
2023-03-17T01:46:35.368Z,89.64
2023-03-17T01:49:31.570Z,88.90
2023-03-17T01:52:09.126Z,89.12
2023-03-17T01:54:50.540Z,89.24
2023-03-17T01:57:53.431Z,89.44
2023-03-17T02:00:24.278Z,89.35
2023-03-17T02:02:55.548Z,88.94
2023-03-17T02:05:29.884Z,89.50
2023-03-17T02:07:57.426Z,89.13
2023-03-17T02:10:28.865Z,88.89
2023-03-17T02:12:59.987Z,88.42
2023-03-17T02:15:37.950Z,88.70
2023-03-17T02:18:05.282Z,88.70
2023-03-17T02:20:32.782Z,88.20
2023-03-17T02:23:00.893Z,88.71
2023-03-17T02:25:30.806Z,88.64
2023-03-17T02:28:04.033Z,88.80
2023-03-17T02:30:33.148Z,89.13
2023-03-17T02:33:00.202Z,89.35
2023-03-17T02:35:27.483Z,89.19
2023-03-17T02:37:54.520Z,89.06
2023-03-17T02:40:22.136Z,89.37
2023-03-17T02:42:49.524Z,89.64
2023-03-17T02:45:17.163Z,89.10
2023-03-17T02:47:44.512Z,88.76
2023-03-17T02:50:23.328Z,88.60
2023-03-17T02:52:51.274Z,88.44
2023-03-17T02:55:18.851Z,88.65
2023-03-17T02:57:46.266Z,89.11
2023-03-17T03:00:14.404Z,89.24
2023-03-17T03:02:42.235Z,89.40
2023-03-17T03:05:10.753Z,89.42
2023-03-17T03:07:37.797Z,90.15
2023-03-17T03:10:05.846Z,90.31
2023-03-17T03:12:33.626Z,90.34
2023-03-17T03:15:00.844Z,90.79
2023-03-17T03:17:27.803Z,90.76
2023-03-17T03:19:55.453Z,90.89
2023-03-17T03:22:22.495Z,91.50
2023-03-17T03:24:49.562Z,91.36
2023-03-17T03:27:17.018Z,91.13
2023-03-17T03:29:44.072Z,91.64
2023-03-17T03:32:11.619Z,91.65
2023-03-17T03:34:38.648Z,91.36
2023-03-17T03:37:06.036Z,91.72
2023-03-17T03:39:33.115Z,92.19
2023-03-17T03:42:00.734Z,91.92
2023-03-17T03:44:27.671Z,92.06
2023-03-17T03:46:57.987Z,92.50
2023-03-17T03:49:25.029Z,92.76
2023-03-17T03:51:52.075Z,92.96
2023-03-17T03:54:19.033Z,93.40
2023-03-17T03:56:45.955Z,93.58
2023-03-17T03:59:12.928Z,94.12
2023-03-17T04:01:40.226Z,94.19
2023-03-17T04:04:07.575Z,94.80
2023-03-17T04:06:34.564Z,95.20
2023-03-17T04:09:02.431Z,95.38
2023-03-17T04:11:29.482Z,95.83
2023-03-17T04:13:56.571Z,95.79
2023-03-17T04:16:23.971Z,96.04
2023-03-17T04:18:51.312Z,96.67
2023-03-17T04:21:19.076Z,96.78
2023-03-17T04:23:46.625Z,96.96
2023-03-17T04:26:13.825Z,97.23
2023-03-17T04:28:40.966Z,97.49
2023-03-17T04:31:12.441Z,97.70
2023-03-17T04:33:40.321Z,97.75
2023-03-17T04:36:08.666Z,97.76
2023-03-17T04:38:35.675Z,97.71
2023-03-17T04:41:03.121Z,98.15
2023-03-17T04:43:30.375Z,98.54
2023-03-17T04:45:57.449Z,98.73
2023-03-17T04:48:24.414Z,99.11
2023-03-17T04:50:51.769Z,99.77
2023-03-17T04:53:19.059Z,100.00
2023-03-17T04:55:46.004Z,99.71
2023-03-17T04:58:21.113Z,100.00
2023-03-17T05:00:55.088Z,100.00
2023-03-17T05:03:27.203Z,100.00
2023-03-17T05:05:55.576Z,100.00
2023-03-17T05:08:22.674Z,100.00
2023-03-17T05:10:51.134Z,100.00
2023-03-17T05:13:19.190Z,100.00
2023-03-17T05:15:51.629Z,100.00
2023-03-17T05:18:20.447Z,100.00
2023-03-17T05:20:47.439Z,100.00
2023-03-17T05:23:15.180Z,100.00
2023-03-17T05:25:42.279Z,100.00
2023-03-17T05:28:10.209Z,100.00
2023-03-17T05:30:37.967Z,100.00
2023-03-17T05:33:06.103Z,100.00
2023-03-17T05:35:33.423Z,100.00
2023-03-17T05:38:00.780Z,100.00
2023-03-17T05:40:28.233Z,100.00
2023-03-17T05:42:55.541Z,100.00
2023-03-17T05:45:23.072Z,100.00
2023-03-17T05:47:50.479Z,100.00
2023-03-17T05:50:17.952Z,100.00
2023-03-17T05:52:45.226Z,100.00
2023-03-17T05:55:12.624Z,100.00
2023-03-17T05:57:39.998Z,100.00
2023-03-17T06:00:08.442Z,100.00
2023-03-17T06:02:35.881Z,100.00
2023-03-17T06:05:03.736Z,100.00
2023-03-17T06:07:41.314Z,100.00
2023-03-17T06:10:16.259Z,100.00
2023-03-17T06:12:43.549Z,100.00
2023-03-17T06:15:11.055Z,100.00
2023-03-17T06:17:39.160Z,100.00
2023-03-17T06:20:06.762Z,100.00
2023-03-17T06:22:33.760Z,100.00
2023-03-17T06:25:01.997Z,100.00
2023-03-17T06:27:28.987Z,100.00
2023-03-17T06:29:57.561Z,100.00
2023-03-17T06:32:25.060Z,100.00
2023-03-17T06:34:53.820Z,100.00
2023-03-17T06:37:21.545Z,99.28
2023-03-17T06:39:48.603Z,98.96
2023-03-17T06:42:17.283Z,99.55
2023-03-17T06:44:45.411Z,98.91
2023-03-17T06:47:13.568Z,98.82
2023-03-17T06:49:41.109Z,98.54
2023-03-17T06:52:08.885Z,97.52
2023-03-17T06:54:36.704Z,97.04
2023-03-17T06:57:04.171Z,96.47
2023-03-17T06:59:31.591Z,95.24
2023-03-17T07:01:59.465Z,95.00
2023-03-17T07:04:27.330Z,95.46
2023-03-17T07:06:54.763Z,94.33
2023-03-17T07:09:22.432Z,93.74
2023-03-17T07:11:49.970Z,92.91
2023-03-17T07:14:17.380Z,93.52
2023-03-17T07:16:45.256Z,92.79
2023-03-17T07:19:13.060Z,92.58
2023-03-17T07:21:41.043Z,92.63
2023-03-17T07:24:08.631Z,92.46
2023-03-17T07:26:36.132Z,92.19
2023-03-17T07:29:03.701Z,91.87
2023-03-17T07:31:31.197Z,91.31
2023-03-17T07:33:58.616Z,91.56
2023-03-17T07:36:26.294Z,91.07
2023-03-17T07:38:53.602Z,90.47
2023-03-17T07:41:22.321Z,90.59
2023-03-17T07:43:49.989Z,89.90
2023-03-17T07:46:17.581Z,90.20
2023-03-17T07:48:45.055Z,89.31
2023-03-17T07:51:19.312Z,88.44
2023-03-17T07:53:47.127Z,87.98
2023-03-17T07:56:14.496Z,87.83
2023-03-17T07:58:42.019Z,86.64
2023-03-17T08:01:09.897Z,86.34
2023-03-17T08:03:39.878Z,85.89
2023-03-17T08:06:08.746Z,86.08
2023-03-17T08:08:37.032Z,85.48
2023-03-17T08:11:06.101Z,85.06
2023-03-17T08:13:34.103Z,85.12
2023-03-17T08:16:21.595Z,84.14
2023-03-17T08:18:48.661Z,83.97
2023-03-17T08:21:16.931Z,83.37
2023-03-17T08:23:44.500Z,83.06
2023-03-17T08:26:14.369Z,82.86
2023-03-17T08:28:41.834Z,82.67
2023-03-17T08:31:13.556Z,81.46
2023-03-17T08:33:42.590Z,81.60
2023-03-17T08:36:11.480Z,80.91
2023-03-17T08:38:40.173Z,80.02
2023-03-17T08:41:12.486Z,78.87
2023-03-17T08:43:40.699Z,78.18
2023-03-17T08:46:22.475Z,77.73
2023-03-17T08:48:52.531Z,78.34
2023-03-17T08:51:24.570Z,77.26
2023-03-17T08:53:52.990Z,77.28
2023-03-17T08:56:20.687Z,76.24
2023-03-17T08:58:48.960Z,76.04
2023-03-17T09:01:17.101Z,75.96
2023-03-17T09:03:45.299Z,77.04
2023-03-17T09:06:13.635Z,75.52
2023-03-17T09:08:45.152Z,75.31
2023-03-17T09:11:16.775Z,75.35
2023-03-17T09:13:44.960Z,73.96
2023-03-17T09:16:16.360Z,72.64
2023-03-17T09:18:44.365Z,73.18
2023-03-17T09:21:14.130Z,72.86
2023-03-17T09:23:41.696Z,71.92
2023-03-17T09:26:09.123Z,72.57
2023-03-17T09:28:37.365Z,71.50
2023-03-17T09:31:11.616Z,70.74
2023-03-17T09:33:42.359Z,69.99
2023-03-17T09:36:10.775Z,70.58
2023-03-17T09:38:38.571Z,70.26
2023-03-17T09:41:20.754Z,71.29
2023-03-17T09:44:32.285Z,70.88
2023-03-17T09:47:28.473Z,70.51
2023-03-17T09:50:03.508Z,69.24
2023-03-17T09:52:37.490Z,69.83
2023-03-17T09:55:08.648Z,69.34
2023-03-17T09:57:38.467Z,69.25
2023-03-17T10:00:23.208Z,68.33
2023-03-17T10:02:50.531Z,69.05
2023-03-17T10:05:21.739Z,69.17
2023-03-17T10:08:30.706Z,68.81
2023-03-17T10:11:25.620Z,70.31
2023-03-17T10:14:23.833Z,69.70
2023-03-17T10:17:16.528Z,68.89
2023-03-17T10:19:59.854Z,67.77
2023-03-17T10:22:59.049Z,67.83
2023-03-17T10:25:37.578Z,67.55
2023-03-17T10:28:21.956Z,66.92
2023-03-17T10:30:49.491Z,65.75
2023-03-17T10:33:16.925Z,65.36
2023-03-17T10:35:45.072Z,64.96
2023-03-17T10:38:22.685Z,65.03
2023-03-17T10:41:09.965Z,65.37
2023-03-17T10:43:50.772Z,65.07
2023-03-17T10:46:25.750Z,65.18
2023-03-17T10:48:58.340Z,64.48
2023-03-17T10:51:33.552Z,65.12
2023-03-17T10:54:08.177Z,66.14
2023-03-17T10:56:38.143Z,65.68
2023-03-17T10:59:25.338Z,66.35
2023-03-17T11:02:00.845Z,66.37
2023-03-17T11:04:34.349Z,66.50
2023-03-17T11:07:17.577Z,66.65
2023-03-17T11:09:49.196Z,66.64
2023-03-17T11:12:29.952Z,68.01
2023-03-17T11:15:07.421Z,65.90
2023-03-17T11:17:59.027Z,66.08
2023-03-17T11:20:47.039Z,64.83
2023-03-17T11:23:47.469Z,65.56
2023-03-17T11:26:38.288Z,66.73
2023-03-17T11:29:23.824Z,65.88
2023-03-17T11:32:01.817Z,64.55
2023-03-17T11:34:52.607Z,64.18
2023-03-17T11:37:28.096Z,64.48
2023-03-17T11:40:43.809Z,63.97
2023-03-17T11:43:45.442Z,64.83
2023-03-17T11:46:28.313Z,64.17
2023-03-17T11:49:16.769Z,63.63
2023-03-17T11:52:14.504Z,63.86
2023-03-17T11:55:00.316Z,64.89
2023-03-17T11:58:02.461Z,63.74
2023-03-17T12:00:42.077Z,64.52
2023-03-17T12:03:43.672Z,63.84
2023-03-17T12:06:20.968Z,63.39
2023-03-17T12:09:01.040Z,63.94
2023-03-17T12:11:37.420Z,63.47
2023-03-17T12:14:33.865Z,63.23
2023-03-17T12:17:05.378Z,63.75
2023-03-17T12:19:58.394Z,63.87
2023-03-17T12:22:35.027Z,63.48
2023-03-17T12:25:10.284Z,63.91
2023-03-17T12:27:48.223Z,63.03
2023-03-17T12:30:33.387Z,63.29
2023-03-17T12:33:36.971Z,63.02
2023-03-17T12:36:06.920Z,63.60
2023-03-17T12:39:05.679Z,63.04
2023-03-17T12:42:10.054Z,64.05
2023-03-17T12:44:53.308Z,63.38
2023-03-17T12:47:57.288Z,63.17
2023-03-17T12:50:26.037Z,62.98
2023-03-17T12:53:31.663Z,63.27
2023-03-17T12:56:27.479Z,62.89
2023-03-17T12:59:24.215Z,64.50
2023-03-17T13:02:16.365Z,63.46
2023-03-17T13:05:00.866Z,62.24
2023-03-17T13:07:51.657Z,62.31
2023-03-17T13:10:42.003Z,61.29
2023-03-17T13:13:30.363Z,61.64
2023-03-17T13:16:00.688Z,62.87
2023-03-17T13:18:36.734Z,62.28
2023-03-17T13:21:04.225Z,62.20
2023-03-17T13:23:59.441Z,61.90
2023-03-17T13:26:53.674Z,61.66
2023-03-17T13:29:39.495Z,61.64
2023-03-17T13:32:27.406Z,61.99
2023-03-17T13:35:01.796Z,62.28
2023-03-17T13:38:03.466Z,62.05
2023-03-17T13:40:40.654Z,62.80
2023-03-17T13:43:43.486Z,62.99
2023-03-17T13:46:30.446Z,62.22
2023-03-17T13:49:04.191Z,62.88
2023-03-17T13:51:34.692Z,63.89
2023-03-17T13:54:30.443Z,63.07
2023-03-17T13:57:24.173Z,62.63
2023-03-17T14:00:17.721Z,62.98
2023-03-17T14:02:46.238Z,61.68
2023-03-17T14:05:38.152Z,62.38
2023-03-17T14:08:18.471Z,63.15
2023-03-17T14:11:00.652Z,62.03
2023-03-17T14:14:31.239Z,62.75
2023-03-17T14:17:29.332Z,63.46
2023-03-17T14:20:18.580Z,63.00
2023-03-17T14:26:37.586Z,63.64
2023-03-17T14:29:05.639Z,64.33
2023-03-17T14:31:33.053Z,64.77
2023-03-17T14:34:01.719Z,65.22
2023-03-17T14:36:33.670Z,65.98
2023-03-17T14:39:01.031Z,65.60
2023-03-17T14:41:29.337Z,65.87
2023-03-17T14:44:00.978Z,66.23
2023-03-17T14:46:33.971Z,66.09
2023-03-17T14:49:17.020Z,65.57
2023-03-17T14:51:44.918Z,65.58
2023-03-17T14:54:22.578Z,65.26
2023-03-17T14:57:02.228Z,66.76
2023-03-17T14:59:38.594Z,67.54
2023-03-17T15:02:24.044Z,66.82
2023-03-17T15:05:19.860Z,67.06
2023-03-17T15:07:47.231Z,68.02
2023-03-17T15:10:29.620Z,66.54
2023-03-17T15:13:06.388Z,66.17
2023-03-17T15:15:38.307Z,66.87
2023-03-17T15:18:12.010Z,67.60
2023-03-17T15:20:39.685Z,68.68
2023-03-17T15:23:18.243Z,68.51
2023-03-17T15:25:55.856Z,68.28
2023-03-17T15:28:27.734Z,68.82
2023-03-17T15:31:05.938Z,68.51
2023-03-17T15:33:39.698Z,68.95
2023-03-17T15:36:07.782Z,69.51
2023-03-17T15:38:38.912Z,69.52
2023-03-17T15:41:06.348Z,69.93
2023-03-17T15:43:34.819Z,70.30
2023-03-17T15:46:10.555Z,70.16
2023-03-17T15:48:38.044Z,70.60
2023-03-17T15:51:06.421Z,71.31
2023-03-17T15:53:33.801Z,69.57
2023-03-17T15:56:01.378Z,69.63
2023-03-17T15:58:28.755Z,69.42
2023-03-17T16:00:57.940Z,68.59
2023-03-17T16:03:32.916Z,69.21
2023-03-17T16:06:02.684Z,69.05
2023-03-17T16:08:30.243Z,69.27
2023-03-17T16:10:57.610Z,69.86
2023-03-17T16:13:24.988Z,69.60
2023-03-17T16:16:00.403Z,69.42
2023-03-17T16:18:37.701Z,69.29
2023-03-17T16:21:05.691Z,69.56
2023-03-17T16:23:37.026Z,70.65
2023-03-17T16:26:14.841Z,70.66
2023-03-17T16:28:45.163Z,70.69
2023-03-17T16:31:22.613Z,70.62
2023-03-17T16:33:50.807Z,69.42
2023-03-17T16:36:20.091Z,68.87
2023-03-17T16:38:47.944Z,68.08
2023-03-17T16:41:27.639Z,68.89
2023-03-17T16:44:02.543Z,69.80
2023-03-17T16:46:35.085Z,70.31
2023-03-17T16:49:04.322Z,70.70
2023-03-17T16:51:31.743Z,71.11
2023-03-17T16:53:58.719Z,71.62
2023-03-17T16:56:27.008Z,72.67
2023-03-17T16:58:54.408Z,72.42
2023-03-17T17:01:25.501Z,71.97
2023-03-17T17:03:53.415Z,72.28
2023-03-17T17:06:22.859Z,72.14
2023-03-17T17:08:51.180Z,72.60
2023-03-17T17:11:19.722Z,72.42
2023-03-17T17:13:48.892Z,72.28
2023-03-17T17:16:30.762Z,72.61
2023-03-17T17:18:59.659Z,72.32
2023-03-17T17:21:27.646Z,72.44
2023-03-17T17:23:55.528Z,72.79
2023-03-17T17:26:23.110Z,74.10
2023-03-17T17:28:50.564Z,74.55
2023-03-17T17:31:18.041Z,74.85
2023-03-17T17:33:45.616Z,74.86
2023-03-17T17:36:16.641Z,74.71
2023-03-17T17:38:44.261Z,74.50
2023-03-17T17:41:12.963Z,74.66
2023-03-17T17:43:40.802Z,75.08
2023-03-17T17:46:21.545Z,75.17
2023-03-17T17:48:49.438Z,75.29
2023-03-17T17:51:17.027Z,75.73
2023-03-17T17:53:44.814Z,75.92
2023-03-17T17:56:16.095Z,76.40
2023-03-17T17:58:45.368Z,76.53
2023-03-17T18:01:14.239Z,76.76
2023-03-17T18:03:42.974Z,76.37
2023-03-17T18:06:12.907Z,76.49
2023-03-17T18:08:40.589Z,77.13
2023-03-17T18:11:08.790Z,77.19
2023-03-17T18:13:38.999Z,77.16
2023-03-17T18:16:10.053Z,77.06
2023-03-17T18:18:40.688Z,77.63
2023-03-17T18:21:08.242Z,77.85
2023-03-17T18:23:36.523Z,77.83
2023-03-17T18:26:06.188Z,78.06
2023-03-17T18:28:34.167Z,78.40
2023-03-17T18:31:10.649Z,78.58
2023-03-17T18:33:39.146Z,78.77
2023-03-17T18:36:07.135Z,78.91
2023-03-17T18:38:35.746Z,80.00
2023-03-17T18:41:04.212Z,80.16
2023-03-17T18:43:31.429Z,80.63
2023-03-17T18:45:58.886Z,81.05
2023-03-17T18:48:26.347Z,81.18
2023-03-17T18:50:53.996Z,82.15
2023-03-17T18:53:22.383Z,82.88
2023-03-17T18:55:49.777Z,84.33
2023-03-17T18:58:17.203Z,84.72
2023-03-17T19:00:44.636Z,85.85
2023-03-17T19:03:12.087Z,86.29
2023-03-17T19:05:39.702Z,86.37
2023-03-17T19:08:07.046Z,87.14
2023-03-17T19:10:34.609Z,87.66
2023-03-17T19:13:02.018Z,87.91
2023-03-17T19:15:30.024Z,86.93
2023-03-17T19:17:57.478Z,85.39
2023-03-17T19:20:24.963Z,85.31
2023-03-17T19:22:53.445Z,86.01
2023-03-17T19:25:21.338Z,85.33
2023-03-17T19:27:48.310Z,85.60
2023-03-17T19:30:16.210Z,86.54
2023-03-17T19:32:43.447Z,87.25
2023-03-17T19:35:11.729Z,87.60
2023-03-17T19:37:39.102Z,87.32
2023-03-17T19:40:10.304Z,87.22
2023-03-17T19:42:37.282Z,88.18
2023-03-17T19:45:06.152Z,88.15
2023-03-17T19:47:33.086Z,87.65
2023-03-17T19:50:00.186Z,87.16
2023-03-17T19:52:27.137Z,86.26
2023-03-17T19:54:54.199Z,85.06
2023-03-17T19:57:21.236Z,84.32
2023-03-17T19:59:48.232Z,83.98
2023-03-17T20:02:16.793Z,84.07
2023-03-17T20:04:44.649Z,84.38
2023-03-17T20:07:11.893Z,85.71
2023-03-17T20:09:39.434Z,87.28
2023-03-17T20:12:08.097Z,87.30
2023-03-17T20:14:35.174Z,87.41
2023-03-17T20:17:02.309Z,88.12
2023-03-17T20:19:29.340Z,88.82
2023-03-17T20:21:58.550Z,89.19
2023-03-17T20:24:27.109Z,88.95
2023-03-17T20:26:57.000Z,88.47
2023-03-17T20:29:24.465Z,88.92
2023-03-17T20:31:51.804Z,88.82
2023-03-17T20:34:18.893Z,89.83
2023-03-17T20:36:46.126Z,90.96
2023-03-17T20:39:19.662Z,91.69
2023-03-17T20:41:51.703Z,91.58
2023-03-17T20:44:19.411Z,90.20
2023-03-17T20:46:47.674Z,89.39
2023-03-17T20:49:17.808Z,89.41
2023-03-17T20:51:46.350Z,89.64
2023-03-17T20:54:13.829Z,89.46
2023-03-17T20:56:41.212Z,89.00
2023-03-17T20:59:09.797Z,89.12
2023-03-17T21:01:38.764Z,89.06
2023-03-17T21:04:09.308Z,89.35
2023-03-17T21:06:37.554Z,90.39
2023-03-17T21:09:05.524Z,90.23
2023-03-17T21:11:32.567Z,90.58
2023-03-17T21:13:59.688Z,90.64
2023-03-17T21:16:29.862Z,90.19
2023-03-17T21:18:57.786Z,90.82
2023-03-17T21:21:25.167Z,89.94
2023-03-17T21:23:52.252Z,89.36
2023-03-17T21:26:19.629Z,89.00
2023-03-17T21:28:47.622Z,88.56
2023-03-17T21:31:16.037Z,88.31
2023-03-17T21:33:43.449Z,88.47
2023-03-17T21:36:11.241Z,87.90
2023-03-17T21:38:39.005Z,87.57
2023-03-17T21:41:29.236Z,87.56
2023-03-17T21:44:00.932Z,88.93
2023-03-17T21:46:28.214Z,89.99
2023-03-17T21:48:56.115Z,90.88
2023-03-17T21:51:23.614Z,92.09
2023-03-17T21:53:50.914Z,92.62
2023-03-17T21:56:18.759Z,93.55
2023-03-17T21:58:45.822Z,93.56
2023-03-17T22:01:12.900Z,93.77
2023-03-17T22:03:40.103Z,93.34
2023-03-17T22:06:08.298Z,93.46
2023-03-17T22:08:35.747Z,93.43
2023-03-17T22:11:09.120Z,93.66
2023-03-17T22:13:37.391Z,93.58
2023-03-17T22:16:05.183Z,94.13
2023-03-17T22:18:32.802Z,95.17
2023-03-17T22:21:00.703Z,95.35
2023-03-17T22:23:29.079Z,95.71
2023-03-17T22:25:57.411Z,95.79
2023-03-17T22:28:25.571Z,95.81
2023-03-17T22:30:52.614Z,94.96
2023-03-17T22:33:19.566Z,95.14
2023-03-17T22:35:47.018Z,94.39
2023-03-17T22:38:14.102Z,94.10
2023-03-17T22:40:41.506Z,92.57
2023-03-17T22:43:08.585Z,91.52
2023-03-17T22:45:35.645Z,91.03
2023-03-17T22:48:02.636Z,91.13
2023-03-17T22:50:29.887Z,90.56
2023-03-17T22:52:57.099Z,89.96
2023-03-17T22:55:24.102Z,89.27
2023-03-17T22:57:51.589Z,88.72
2023-03-17T23:00:19.749Z,88.07
2023-03-17T23:02:46.781Z,86.65
2023-03-17T23:05:14.638Z,84.85
2023-03-17T23:07:50.305Z,84.37
2023-03-17T23:10:23.171Z,83.51
2023-03-17T23:12:51.457Z,83.54
2023-03-17T23:15:19.948Z,84.46
2023-03-17T23:17:47.601Z,85.32
2023-03-17T23:20:15.464Z,85.44
2023-03-17T23:22:43.086Z,85.91
2023-03-17T23:25:12.653Z,86.98
2023-03-17T23:27:40.751Z,87.45
2023-03-17T23:30:11.281Z,87.29
2023-03-17T23:32:40.784Z,86.49
2023-03-17T23:35:09.475Z,85.07
2023-03-17T23:37:37.328Z,84.34
2023-03-17T23:40:09.670Z,83.58
2023-03-17T23:42:37.066Z,83.21
2023-03-17T23:45:04.862Z,83.38
2023-03-17T23:47:31.977Z,83.60
2023-03-17T23:49:59.022Z,84.18
2023-03-17T23:52:26.332Z,84.15
2023-03-17T23:54:53.517Z,84.52
2023-03-17T23:57:20.944Z,85.28
2023-03-17T23:59:47.958Z,84.41
